PAVD METAR and TAF weather

Enter ICAO airport designator
Station Type Date Time Source
PAVD METAR 2021/08/02 01:56 UTC NOAA

PAVD 020156Z 25004KT 10SM CLR 21/09 A3017 RMK AO2 SLP214 T02060094


Station Type Date Time Source
PAVD Decoded METAR 2021/08/02 01:56 UTC NOAA

Valdez 2, AK, United States (PAVD) 61-08N 146-16W
Aug 01, 2021 - 09:56 PM EDT / 2021.08.02 0156 UTC
Wind: from the WSW (250 degrees) at 5 MPH (4 KT):0
Visibility: 10 mile(s):0
Sky conditions: clear
Temperature: 69.1 F (20.6 C)
Dew Point: 48.9 F (9.4 C)
Relative Humidity: 48%
Pressure (altimeter): 30.17 in. Hg (1021 hPa)
ob: PAVD 020156Z 25004KT 10SM CLR 21/09 A3017 RMK AO2 SLP214 T02060094
cycle: 2

Station Type Date Time Source
PAVD TAF 2021/08/01 18:27 UTC NOAA

TAF PAVD 011724Z 0118/0218 VRB03KT P6SM SKC
FM012100 25012KT P6SM SKC
FM020500 08005KT P6SM SKC
AMD LTD TO CLD VIS AND WIND

Example: see airport list